sensor_id;sensor_type;location;lat;lon;timestamp;pressure;altitude;pressure_sealevel;temperature;humidity
64025;BME280;50266;57.446;26.936;2023-04-27T00:00:29;98577.42;;;4.21;100.0
64025;BME280;50266;57.446;26.936;2023-04-27T00:01:29;98574.18;;;4.28;100.0
64025;BME280;50266;57.446;26.936;2023-04-27T00:02:29;98575.61;;;4.31;100.0
64025;BME280;50266;57.446;26.936;2023-04-27T00:03:29;98576.51;;;4.31;100.0
64025;BME280;50266;57.446;26.936;2023-04-27T00:04:29;98576.27;;;4.31;100.0
64025;BME280;50266;57.446;26.936;2023-04-27T00:05:29;98571.06;;;4.25;100.0
64025;BME280;50266;57.446;26.936;2023-04-27T00:06:29;98564.06;;;4.18;100.0
64025;BME280;50266;57.446;26.936;2023-04-27T00:07:29;98561.75;;;4.2;100.0
64025;BME280;50266;57.446;26.936;2023-04-27T00:08:29;98563.0;;;4.28;100.0
64025;BME280;50266;57.446;26.936;2023-04-27T00:09:29;98565.01;;;4.33;100.0
64025;BME280;50266;57.446;26.936;2023-04-27T00:10:29;98561.05;;;4.26;100.0
64025;BME280;50266;57.446;26.936;2023-04-27T00:11:29;98573.39;;;4.28;100.0
64025;BME280;50266;57.446;26.936;2023-04-27T00:12:29;98574.76;;;4.26;100.0
64025;BME280;50266;57.446;26.936;2023-04-27T00:13:29;98573.39;;;4.25;100.0
64025;BME280;50266;57.446;26.936;2023-04-27T00:14:29;98574.15;;;4.33;100.0
64025;BME280;50266;57.446;26.936;2023-04-27T00:15:29;98576.69;;;4.27;100.0
64025;BME280;50266;57.446;26.936;2023-04-27T00:16:29;98576.83;;;4.26;100.0
64025;BME280;50266;57.446;26.936;2023-04-27T00:17:29;98574.41;;;4.23;100.0
64025;BME280;50266;57.446;26.936;2023-04-27T00:18:29;98574.28;;;4.28;100.0
64025;BME280;50266;57.446;26.936;2023-04-27T00:19:29;98576.87;;;4.26;100.0
64025;BME280;50266;57.446;26.936;2023-04-27T00:20:29;98579.55;;;4.24;100.0
64025;BME280;50266;57.446;26.936;2023-04-27T00:21:29;98580.08;;;4.24;100.0
64025;BME280;50266;57.446;26.936;2023-04-27T00:22:29;98587.41;;;4.24;100.0
64025;BME280;50266;57.446;26.936;2023-04-27T00:23:29;98588.0;;;4.23;100.0
64025;BME280;50266;57.446;26.936;2023-04-27T00:24:29;98588.62;;;4.24;100.0
64025;BME280;50266;57.446;26.936;2023-04-27T00:25:29;98591.73;;;4.25;100.0
64025;BME280;50266;57.446;26.936;2023-04-27T00:26:29;98593.59;;;4.29;100.0
64025;BME280;50266;57.446;26.936;2023-04-27T00:27:29;98594.36;;;4.25;100.0
64025;BME280;50266;57.446;26.936;2023-04-27T00:28:29;98595.68;;;4.36;100.0
64025;BME280;50266;57.446;26.936;2023-04-27T00:29:29;98598.25;;;4.27;100.0
64025;BME280;50266;57.446;26.936;2023-04-27T00:30:29;98593.51;;;4.31;100.0
64025;BME280;50266;57.446;26.936;2023-04-27T00:31:29;98592.98;;;4.27;100.0
64025;BME280;50266;57.446;26.936;2023-04-27T00:32:29;98587.1;;;4.25;100.0
64025;BME280;50266;57.446;26.936;2023-04-27T00:33:29;98591.28;;;4.28;100.0
64025;BME280;50266;57.446;26.936;2023-04-27T00:34:29;98589.75;;;4.24;100.0
64025;BME280;50266;57.446;26.936;2023-04-27T00:35:30;98595.27;;;4.21;100.0
64025;BME280;50266;57.446;26.936;2023-04-27T00:36:31;98599.28;;;4.18;100.0
64025;BME280;50266;57.446;26.936;2023-04-27T00:37:29;98602.45;;;4.25;100.0
64025;BME280;50266;57.446;26.936;2023-04-27T00:38:29;98604.38;;;4.31;100.0
64025;BME280;50266;57.446;26.936;2023-04-27T00:39:30;98605.44;;;4.28;100.0
64025;BME280;50266;57.446;26.936;2023-04-27T00:40:30;98605.49;;;4.35;100.0
64025;BME280;50266;57.446;26.936;2023-04-27T00:41:30;98608.8;;;4.19;100.0
64025;BME280;50266;57.446;26.936;2023-04-27T00:42:29;98604.7;;;4.21;100.0
64025;BME280;50266;57.446;26.936;2023-04-27T00:43:30;98594.43;;;4.22;100.0
64025;BME280;50266;57.446;26.936;2023-04-27T00:44:29;98590.03;;;4.27;100.0
64025;BME280;50266;57.446;26.936;2023-04-27T00:45:29;98597.28;;;4.23;100.0
64025;BME280;50266;57.446;26.936;2023-04-27T00:46:30;98595.7;;;4.2;100.0
64025;BME280;50266;57.446;26.936;2023-04-27T00:47:30;98595.58;;;4.28;100.0
64025;BME280;50266;57.446;26.936;2023-04-27T00:48:30;98591.75;;;4.21;100.0
64025;BME280;50266;57.446;26.936;2023-04-27T00:49:30;98586.52;;;4.22;100.0
64025;BME280;50266;57.446;26.936;2023-04-27T00:50:30;98585.28;;;4.26;100.0
64025;BME280;50266;57.446;26.936;2023-04-27T00:51:30;98584.68;;;4.21;100.0
64025;BME280;50266;57.446;26.936;2023-04-27T00:52:30;98590.41;;;4.21;100.0
64025;BME280;50266;57.446;26.936;2023-04-27T00:53:30;98584.3;;;4.17;100.0
64025;BME280;50266;57.446;26.936;2023-04-27T00:54:30;98572.55;;;4.19;100.0
64025;BME280;50266;57.446;26.936;2023-04-27T00:55:30;98564.06;;;4.18;100.0
64025;BME280;50266;57.446;26.936;2023-04-27T00:56:30;98565.66;;;4.22;100.0
64025;BME280;50266;57.446;26.936;2023-04-27T00:57:30;98574.41;;;4.27;100.0
64025;BME280;50266;57.446;26.936;2023-04-27T00:58:30;98580.72;;;4.28;100.0
64025;BME280;50266;57.446;26.936;2023-04-27T00:59:30;98583.86;;;4.24;100.0
64025;BME280;50266;57.446;26.936;2023-04-27T01:00:30;98580.91;;;4.23;100.0
64025;BME280;50266;57.446;26.936;2023-04-27T01:01:30;98581.59;;;4.23;100.0
64025;BME280;50266;57.446;26.936;2023-04-27T01:02:30;98580.03;;;4.19;100.0
64025;BME280;50266;57.446;26.936;2023-04-27T01:03:30;98579.68;;;4.21;100.0
64025;BME280;50266;57.446;26.936;2023-04-27T01:04:30;98585.91;;;4.2;100.0
64025;BME280;50266;57.446;26.936;2023-04-27T01:05:30;98587.69;;;4.22;100.0
64025;BME280;50266;57.446;26.936;2023-04-27T01:06:30;98590.75;;;4.16;100.0
64025;BME280;50266;57.446;26.936;2023-04-27T01:07:30;98595.91;;;4.16;100.0
64025;BME280;50266;57.446;26.936;2023-04-27T01:08:30;98603.78;;;4.2;100.0
64025;BME280;50266;57.446;26.936;2023-04-27T01:09:30;98599.2;;;4.19;100.0
64025;BME280;50266;57.446;26.936;2023-04-27T01:10:30;98595.62;;;4.24;100.0
64025;BME280;50266;57.446;26.936;2023-04-27T01:11:31;98588.47;;;4.17;100.0
64025;BME280;50266;57.446;26.936;2023-04-27T01:12:30;98586.76;;;4.23;100.0
64025;BME280;50266;57.446;26.936;2023-04-27T01:13:30;98581.59;;;4.12;100.0
64025;BME280;50266;57.446;26.936;2023-04-27T01:14:30;98579.89;;;4.14;100.0
64025;BME280;50266;57.446;26.936;2023-04-27T01:15:30;98575.69;;;4.19;100.0
64025;BME280;50266;57.446;26.936;2023-04-27T01:16:31;98577.59;;;4.19;100.0
64025;BME280;50266;57.446;26.936;2023-04-27T01:17:30;98577.44;;;4.27;100.0
64025;BME280;50266;57.446;26.936;2023-04-27T01:18:30;98574.86;;;4.2;100.0
64025;BME280;50266;57.446;26.936;2023-04-27T01:19:30;98573.2;;;4.22;100.0
64025;BME280;50266;57.446;26.936;2023-04-27T01:20:30;98572.45;;;4.09;100.0
64025;BME280;50266;57.446;26.936;2023-04-27T01:21:30;98571.44;;;4.11;100.0
64025;BME280;50266;57.446;26.936;2023-04-27T01:22:30;98565.62;;;4.14;100.0
64025;BME280;50266;57.446;26.936;2023-04-27T01:23:30;98567.8;;;4.14;100.0
64025;BME280;50266;57.446;26.936;2023-04-27T01:24:30;98557.56;;;4.26;100.0
64025;BME280;50266;57.446;26.936;2023-04-27T01:25:30;98565.91;;;4.3;100.0
64025;BME280;50266;57.446;26.936;2023-04-27T01:26:30;98572.17;;;4.19;100.0
64025;BME280;50266;57.446;26.936;2023-04-27T01:27:30;98575.72;;;4.11;100.0
64025;BME280;50266;57.446;26.936;2023-04-27T01:28:30;98584.14;;;4.13;100.0
64025;BME280;50266;57.446;26.936;2023-04-27T01:29:30;98592.34;;;4.26;100.0
64025;BME280;50266;57.446;26.936;2023-04-27T01:30:30;98596.4;;;4.4;100.0
64025;BME280;50266;57.446;26.936;2023-04-27T01:31:30;98595.98;;;4.19;100.0
64025;BME280;50266;57.446;26.936;2023-04-27T01:32:30;98601.06;;;4.26;100.0
64025;BME280;50266;57.446;26.936;2023-04-27T01:33:30;98602.23;;;4.33;100.0
64025;BME280;50266;57.446;26.936;2023-04-27T01:34:30;98600.16;;;4.25;100.0
64025;BME280;50266;57.446;26.936;2023-04-27T01:35:30;98599.81;;;4.17;100.0
64025;BME280;50266;57.446;26.936;2023-04-27T01:36:30;98596.11;;;4.13;100.0
64025;BME280;50266;57.446;26.936;2023-04-27T01:37:30;98599.34;;;4.23;100.0
64025;BME280;50266;57.446;26.936;2023-04-27T01:38:34;98594.88;;;4.17;100.0
64025;BME280;50266;57.446;26.936;2023-04-27T01:39:31;98603.87;;;4.25;100.0
64025;BME280;50266;57.446;26.936;2023-04-27T01:40:31;98603.7;;;4.22;100.0
64025;BME280;50266;57.446;26.936;2023-04-27T01:41:31;98609.05;;;4.2;100.0
64025;BME280;50266;57.446;26.936;2023-04-27T01:42:31;98608.02;;;4.24;100.0
64025;BME280;50266;57.446;26.936;2023-04-27T01:43:31;98605.91;;;4.1;100.0
64025;BME280;50266;57.446;26.936;2023-04-27T01:44:31;98606.04;;;4.1;100.0
64025;BME280;50266;57.446;26.936;2023-04-27T01:45:31;98597.5;;;4.11;100.0
64025;BME280;50266;57.446;26.936;2023-04-27T01:46:31;98598.19;;;4.06;100.0
64025;BME280;50266;57.446;26.936;2023-04-27T01:47:31;98595.14;;;4.09;100.0
64025;BME280;50266;57.446;26.936;2023-04-27T01:48:31;98592.95;;;4.06;100.0
64025;BME280;50266;57.446;26.936;2023-04-27T01:49:31;98590.39;;;4.03;100.0
64025;BME280;50266;57.446;26.936;2023-04-27T01:50:31;98589.59;;;4.1;100.0
64025;BME280;50266;57.446;26.936;2023-04-27T01:51:31;98588.28;;;4.1;100.0
64025;BME280;50266;57.446;26.936;2023-04-27T01:52:31;98594.99;;;4.16;100.0
64025;BME280;50266;57.446;26.936;2023-04-27T01:53:31;98593.51;;;4.28;100.0
64025;BME280;50266;57.446;26.936;2023-04-27T01:54:31;98588.27;;;4.18;100.0
64025;BME280;50266;57.446;26.936;2023-04-27T01:55:31;98587.27;;;4.07;100.0
64025;BME280;50266;57.446;26.936;2023-04-27T01:56:31;98583.66;;;4.06;100.0
64025;BME280;50266;57.446;26.936;2023-04-27T01:57:31;98583.67;;;4.02;100.0
64025;BME280;50266;57.446;26.936;2023-04-27T01:58:31;98578.48;;;4.02;100.0
64025;BME280;50266;57.446;26.936;2023-04-27T01:59:31;98580.0;;;4.04;100.0
64025;BME280;50266;57.446;26.936;2023-04-27T02:00:31;98584.84;;;4.01;100.0
64025;BME280;50266;57.446;26.936;2023-04-27T02:01:31;98586.88;;;4.06;100.0
64025;BME280;50266;57.446;26.936;2023-04-27T02:02:31;98584.25;;;4.03;100.0
64025;BME280;50266;57.446;26.936;2023-04-27T02:03:31;98586.31;;;4.1;100.0
64025;BME280;50266;57.446;26.936;2023-04-27T02:04:31;98584.93;;;3.98;100.0
64025;BME280;50266;57.446;26.936;2023-04-27T02:05:31;98581.31;;;4.01;100.0
64025;BME280;50266;57.446;26.936;2023-04-27T02:06:31;98585.05;;;4.03;100.0
64025;BME280;50266;57.446;26.936;2023-04-27T02:07:31;98582.29;;;4.02;100.0
64025;BME280;50266;57.446;26.936;2023-04-27T02:08:31;98583.98;;;4.06;100.0
64025;BME280;50266;57.446;26.936;2023-04-27T02:09:31;98588.9;;;3.98;100.0
64025;BME280;50266;57.446;26.936;2023-04-27T02:10:31;98588.98;;;4.12;100.0
64025;BME280;50266;57.446;26.936;2023-04-27T02:11:31;98589.12;;;4.14;100.0
64025;BME280;50266;57.446;26.936;2023-04-27T02:12:31;98590.86;;;4.09;100.0
64025;BME280;50266;57.446;26.936;2023-04-27T02:13:31;98591.88;;;4.09;100.0
64025;BME280;50266;57.446;26.936;2023-04-27T02:14:32;98589.5;;;4.16;100.0
64025;BME280;50266;57.446;26.936;2023-04-27T02:15:32;98590.48;;;4.05;100.0
64025;BME280;50266;57.446;26.936;2023-04-27T02:16:32;98591.3;;;4.11;100.0
64025;BME280;50266;57.446;26.936;2023-04-27T02:17:35;98589.66;;;4.14;100.0
64025;BME280;50266;57.446;26.936;2023-04-27T02:18:32;98589.39;;;4.13;100.0
64025;BME280;50266;57.446;26.936;2023-04-27T02:19:32;98587.12;;;4.02;100.0
64025;BME280;50266;57.446;26.936;2023-04-27T02:20:32;98586.89;;;4.14;100.0
64025;BME280;50266;57.446;26.936;2023-04-27T02:21:32;98586.3;;;4.25;100.0
64025;BME280;50266;57.446;26.936;2023-04-27T02:22:32;98587.22;;;4.11;100.0
64025;BME280;50266;57.446;26.936;2023-04-27T02:23:32;98588.08;;;4.1;100.0
64025;BME280;50266;57.446;26.936;2023-04-27T02:24:33;98586.85;;;4.06;100.0
64025;BME280;50266;57.446;26.936;2023-04-27T02:25:34;98581.88;;;3.97;100.0
64025;BME280;50266;57.446;26.936;2023-04-27T02:26:32;98582.64;;;4.03;100.0
64025;BME280;50266;57.446;26.936;2023-04-27T02:27:32;98580.23;;;4.04;100.0
64025;BME280;50266;57.446;26.936;2023-04-27T02:28:32;98581.62;;;4.06;100.0
64025;BME280;50266;57.446;26.936;2023-04-27T02:29:32;98581.62;;;4.06;100.0
64025;BME280;50266;57.446;26.936;2023-04-27T02:30:32;98582.14;;;3.98;100.0
64025;BME280;50266;57.446;26.936;2023-04-27T02:31:32;98582.0;;;3.95;100.0
64025;BME280;50266;57.446;26.936;2023-04-27T02:32:32;98585.69;;;3.94;100.0
64025;BME280;50266;57.446;26.936;2023-04-27T02:33:32;98584.38;;;3.93;100.0
64025;BME280;50266;57.446;26.936;2023-04-27T02:34:32;98586.23;;;3.99;100.0
64025;BME280;50266;57.446;26.936;2023-04-27T02:35:32;98586.38;;;3.97;100.0
64025;BME280;50266;57.446;26.936;2023-04-27T02:36:32;98587.25;;;4.0;100.0
64025;BME280;50266;57.446;26.936;2023-04-27T02:37:32;98588.19;;;4.03;100.0
64025;BME280;50266;57.446;26.936;2023-04-27T02:38:32;98584.86;;;3.98;100.0
64025;BME280;50266;57.446;26.936;2023-04-27T02:39:32;98583.85;;;4.07;100.0
64025;BME280;50266;57.446;26.936;2023-04-27T02:40:32;98584.27;;;4.07;100.0
64025;BME280;50266;57.446;26.936;2023-04-27T02:41:32;98584.05;;;3.9;100.0
64025;BME280;50266;57.446;26.936;2023-04-27T02:42:32;98584.58;;;3.94;100.0
64025;BME280;50266;57.446;26.936;2023-04-27T02:43:32;98585.81;;;3.92;100.0
64025;BME280;50266;57.446;26.936;2023-04-27T02:44:32;98584.95;;;3.93;100.0
64025;BME280;50266;57.446;26.936;2023-04-27T02:45:35;98579.81;;;3.94;100.0
64025;BME280;50266;57.446;26.936;2023-04-27T02:46:32;98585.86;;;4.03;100.0
64025;BME280;50266;57.446;26.936;2023-04-27T02:47:32;98584.34;;;4.01;100.0
64025;BME280;50266;57.446;26.936;2023-04-27T02:48:32;98579.62;;;4.11;100.0
64025;BME280;50266;57.446;26.936;2023-04-27T02:49:32;98582.27;;;4.12;100.0
64025;BME280;50266;57.446;26.936;2023-04-27T02:50:32;98587.48;;;3.99;100.0
64025;BME280;50266;57.446;26.936;2023-04-27T02:51:32;98585.05;;;3.95;100.0
64025;BME280;50266;57.446;26.936;2023-04-27T02:52:32;98590.37;;;4.03;100.0
64025;BME280;50266;57.446;26.936;2023-04-27T02:53:32;98586.75;;;4.0;100.0
64025;BME280;50266;57.446;26.936;2023-04-27T02:54:32;98592.64;;;3.89;100.0
64025;BME280;50266;57.446;26.936;2023-04-27T02:55:32;98593.89;;;3.85;100.0
64025;BME280;50266;57.446;26.936;2023-04-27T02:56:32;98588.23;;;3.86;100.0
64025;BME280;50266;57.446;26.936;2023-04-27T02:57:32;98596.16;;;3.86;100.0
64025;BME280;50266;57.446;26.936;2023-04-27T02:58:32;98598.88;;;3.89;100.0
64025;BME280;50266;57.446;26.936;2023-04-27T02:59:32;98602.8;;;3.92;100.0
64025;BME280;50266;57.446;26.936;2023-04-27T03:00:32;98600.88;;;3.9;100.0
64025;BME280;50266;57.446;26.936;2023-04-27T03:01:32;98603.23;;;3.8;100.0
64025;BME280;50266;57.446;26.936;2023-04-27T03:02:32;98606.99;;;3.83;100.0
64025;BME280;50266;57.446;26.936;2023-04-27T03:03:32;98609.08;;;3.7;100.0
64025;BME280;50266;57.446;26.936;2023-04-27T03:04:32;98616.47;;;3.78;100.0
64025;BME280;50266;57.446;26.936;2023-04-27T03:05:32;98617.38;;;3.75;100.0
64025;BME280;50266;57.446;26.936;2023-04-27T03:06:32;98621.53;;;3.74;100.0
64025;BME280;50266;57.446;26.936;2023-04-27T03:07:33;98616.0;;;3.67;100.0
64025;BME280;50266;57.446;26.936;2023-04-27T03:08:32;98619.33;;;3.74;100.0
64025;BME280;50266;57.446;26.936;2023-04-27T03:09:33;98622.01;;;3.75;100.0
64025;BME280;50266;57.446;26.936;2023-04-27T03:10:32;98618.38;;;3.73;100.0
64025;BME280;50266;57.446;26.936;2023-04-27T03:11:32;98618.12;;;3.7;100.0
64025;BME280;50266;57.446;26.936;2023-04-27T03:12:32;98616.12;;;3.69;100.0
64025;BME280;50266;57.446;26.936;2023-04-27T03:13:32;98620.0;;;3.68;100.0
64025;BME280;50266;57.446;26.936;2023-04-27T03:14:32;98613.45;;;3.61;100.0
64025;BME280;50266;57.446;26.936;2023-04-27T03:15:33;98618.55;;;3.57;100.0
64025;BME280;50266;57.446;26.936;2023-04-27T03:16:33;98615.52;;;3.63;100.0
64025;BME280;50266;57.446;26.936;2023-04-27T03:17:32;98615.17;;;3.61;100.0
64025;BME280;50266;57.446;26.936;2023-04-27T03:18:32;98617.17;;;3.6;100.0
64025;BME280;50266;57.446;26.936;2023-04-27T03:19:33;98624.04;;;3.57;100.0
64025;BME280;50266;57.446;26.936;2023-04-27T03:20:33;98619.88;;;3.59;100.0
64025;BME280;50266;57.446;26.936;2023-04-27T03:21:33;98621.27;;;3.54;100.0
64025;BME280;50266;57.446;26.936;2023-04-27T03:22:33;98624.34;;;3.52;100.0
64025;BME280;50266;57.446;26.936;2023-04-27T03:23:33;98623.1;;;3.55;100.0
64025;BME280;50266;57.446;26.936;2023-04-27T03:24:33;98623.05;;;3.58;100.0
64025;BME280;50266;57.446;26.936;2023-04-27T03:25:33;98622.28;;;3.63;100.0
64025;BME280;50266;57.446;26.936;2023-04-27T03:26:33;98625.38;;;3.57;100.0
64025;BME280;50266;57.446;26.936;2023-04-27T03:27:33;98621.52;;;3.65;100.0
64025;BME280;50266;57.446;26.936;2023-04-27T03:28:33;98627.27;;;3.59;100.0
64025;BME280;50266;57.446;26.936;2023-04-27T03:29:33;98626.11;;;3.56;100.0
64025;BME280;50266;57.446;26.936;2023-04-27T03:30:33;98627.55;;;3.61;100.0
64025;BME280;50266;57.446;26.936;2023-04-27T03:31:33;98631.0;;;3.57;100.0
64025;BME280;50266;57.446;26.936;2023-04-27T03:32:33;98635.31;;;3.56;100.0
64025;BME280;50266;57.446;26.936;2023-04-27T03:33:33;98631.55;;;3.59;100.0
64025;BME280;50266;57.446;26.936;2023-04-27T03:34:33;98633.88;;;3.58;100.0
64025;BME280;50266;57.446;26.936;2023-04-27T03:35:33;98633.86;;;3.61;100.0
64025;BME280;50266;57.446;26.936;2023-04-27T03:36:33;98632.12;;;3.63;100.0
64025;BME280;50266;57.446;26.936;2023-04-27T03:37:33;98636.7;;;3.63;100.0
64025;BME280;50266;57.446;26.936;2023-04-27T03:38:33;98632.38;;;3.62;100.0
64025;BME280;50266;57.446;26.936;2023-04-27T03:39:33;98638.05;;;3.58;100.0
64025;BME280;50266;57.446;26.936;2023-04-27T03:40:33;98635.85;;;3.58;100.0
64025;BME280;50266;57.446;26.936;2023-04-27T03:41:33;98638.48;;;3.57;100.0
64025;BME280;50266;57.446;26.936;2023-04-27T03:42:33;98641.27;;;3.58;100.0
64025;BME280;50266;57.446;26.936;2023-04-27T03:43:33;98643.15;;;3.7;100.0
64025;BME280;50266;57.446;26.936;2023-04-27T03:44:33;98639.8;;;3.7;100.0
64025;BME280;50266;57.446;26.936;2023-04-27T03:45:33;98644.05;;;3.8;100.0
64025;BME280;50266;57.446;26.936;2023-04-27T03:46:33;98646.42;;;3.83;100.0
64025;BME280;50266;57.446;26.936;2023-04-27T03:47:33;98647.36;;;3.81;100.0
64025;BME280;50266;57.446;26.936;2023-04-27T03:48:33;98643.66;;;3.84;100.0
64025;BME280;50266;57.446;26.936;2023-04-27T03:49:33;98643.66;;;3.84;100.0
64025;BME280;50266;57.446;26.936;2023-04-27T03:50:33;98647.42;;;3.92;100.0
64025;BME280;50266;57.446;26.936;2023-04-27T03:51:33;98647.53;;;3.91;100.0
64025;BME280;50266;57.446;26.936;2023-04-27T03:52:33;98649.48;;;3.85;100.0
64025;BME280;50266;57.446;26.936;2023-04-27T03:53:33;98655.84;;;3.83;100.0
64025;BME280;50266;57.446;26.936;2023-04-27T03:54:33;98657.91;;;3.76;100.0
64025;BME280;50266;57.446;26.936;2023-04-27T03:55:36;98656.12;;;3.85;100.0
64025;BME280;50266;57.446;26.936;2023-04-27T03:56:33;98660.72;;;3.89;100.0
64025;BME280;50266;57.446;26.936;2023-04-27T03:57:33;98662.11;;;4.03;100.0
64025;BME280;50266;57.446;26.936;2023-04-27T03:58:33;98663.3;;;4.02;100.0
64025;BME280;50266;57.446;26.936;2023-04-27T03:59:33;98662.08;;;3.99;100.0
64025;BME280;50266;57.446;26.936;2023-04-27T04:00:33;98662.42;;;3.97;100.0
64025;BME280;50266;57.446;26.936;2023-04-27T04:01:33;98663.55;;;3.85;100.0
64025;BME280;50266;57.446;26.936;2023-04-27T04:02:33;98665.16;;;3.85;100.0
64025;BME280;50266;57.446;26.936;2023-04-27T04:03:33;98657.69;;;3.97;100.0
64025;BME280;50266;57.446;26.936;2023-04-27T04:04:33;98664.88;;;4.02;100.0
64025;BME280;50266;57.446;26.936;2023-04-27T04:05:33;98663.41;;;4.08;100.0
64025;BME280;50266;57.446;26.936;2023-04-27T04:06:33;98666.66;;;4.05;100.0
64025;BME280;50266;57.446;26.936;2023-04-27T04:07:33;98665.62;;;4.0;100.0
64025;BME280;50266;57.446;26.936;2023-04-27T04:08:33;98664.2;;;3.97;100.0
64025;BME280;50266;57.446;26.936;2023-04-27T04:09:33;98666.58;;;3.96;100.0
64025;BME280;50266;57.446;26.936;2023-04-27T04:10:33;98666.16;;;3.99;100.0
64025;BME280;50266;57.446;26.936;2023-04-27T04:11:33;98666.11;;;4.04;100.0
64025;BME280;50266;57.446;26.936;2023-04-27T04:12:33;98668.31;;;4.07;100.0
64025;BME280;50266;57.446;26.936;2023-04-27T04:13:33;98670.27;;;4.05;100.0
64025;BME280;50266;57.446;26.936;2023-04-27T04:14:33;98671.94;;;3.91;100.0
64025;BME280;50266;57.446;26.936;2023-04-27T04:15:33;98668.23;;;3.94;100.0
64025;BME280;50266;57.446;26.936;2023-04-27T04:16:33;98676.02;;;3.91;100.0
64025;BME280;50266;57.446;26.936;2023-04-27T04:17:33;98670.06;;;3.92;100.0
64025;BME280;50266;57.446;26.936;2023-04-27T04:18:33;98671.65;;;3.91;100.0
64025;BME280;50266;57.446;26.936;2023-04-27T04:19:33;98672.53;;;4.03;100.0
64025;BME280;50266;57.446;26.936;2023-04-27T04:20:33;98668.14;;;4.05;100.0
64025;BME280;50266;57.446;26.936;2023-04-27T04:21:33;98675.97;;;4.04;100.0
64025;BME280;50266;57.446;26.936;2023-04-27T04:22:33;98677.23;;;3.98;100.0
64025;BME280;50266;57.446;26.936;2023-04-27T04:23:33;98674.74;;;4.01;100.0
64025;BME280;50266;57.446;26.936;2023-04-27T04:24:33;98677.28;;;4.01;100.0
64025;BME280;50266;57.446;26.936;2023-04-27T04:25:33;98677.19;;;3.99;100.0
64025;BME280;50266;57.446;26.936;2023-04-27T04:26:33;98678.06;;;4.05;100.0
64025;BME280;50266;57.446;26.936;2023-04-27T04:27:33;98681.02;;;4.09;100.0
64025;BME280;50266;57.446;26.936;2023-04-27T04:28:34;98678.33;;;4.05;100.0
64025;BME280;50266;57.446;26.936;2023-04-27T04:29:33;98677.12;;;4.14;100.0
64025;BME280;50266;57.446;26.936;2023-04-27T04:30:33;98679.16;;;4.04;100.0
64025;BME280;50266;57.446;26.936;2023-04-27T04:31:33;98681.1;;;4.03;100.0
64025;BME280;50266;57.446;26.936;2023-04-27T04:32:34;98682.59;;;4.05;100.0
64025;BME280;50266;57.446;26.936;2023-04-27T04:33:34;98679.79;;;4.1;100.0
64025;BME280;50266;57.446;26.936;2023-04-27T04:34:34;98681.14;;;4.21;100.0
64025;BME280;50266;57.446;26.936;2023-04-27T04:35:36;98684.96;;;4.02;100.0
64025;BME280;50266;57.446;26.936;2023-04-27T04:36:34;98686.69;;;4.07;100.0
64025;BME280;50266;57.446;26.936;2023-04-27T04:37:34;98684.27;;;4.16;100.0
64025;BME280;50266;57.446;26.936;2023-04-27T04:38:34;98685.88;;;4.29;100.0
64025;BME280;50266;57.446;26.936;2023-04-27T04:39:34;98689.05;;;4.28;100.0
64025;BME280;50266;57.446;26.936;2023-04-27T04:40:34;98682.89;;;4.33;100.0
64025;BME280;50266;57.446;26.936;2023-04-27T04:41:34;98687.19;;;4.34;100.0
64025;BME280;50266;57.446;26.936;2023-04-27T04:42:34;98689.04;;;4.33;100.0
64025;BME280;50266;57.446;26.936;2023-04-27T04:43:34;98684.55;;;4.32;100.0
64025;BME280;50266;57.446;26.936;2023-04-27T04:44:34;98685.66;;;4.18;100.0
64025;BME280;50266;57.446;26.936;2023-04-27T04:45:34;98682.8;;;4.08;100.0
64025;BME280;50266;57.446;26.936;2023-04-27T04:46:34;98689.61;;;4.18;100.0
64025;BME280;50266;57.446;26.936;2023-04-27T04:47:34;98693.31;;;4.16;100.0
64025;BME280;50266;57.446;26.936;2023-04-27T04:48:34;98692.23;;;4.16;100.0
64025;BME280;50266;57.446;26.936;2023-04-27T04:49:34;98692.56;;;4.22;100.0
64025;BME280;50266;57.446;26.936;2023-04-27T04:50:34;98688.72;;;4.31;100.0
64025;BME280;50266;57.446;26.936;2023-04-27T04:51:40;98690.91;;;4.33;100.0
64025;BME280;50266;57.446;26.936;2023-04-27T04:52:37;98686.01;;;4.37;100.0
64025;BME280;50266;57.446;26.936;2023-04-27T04:53:38;98686.7;;;4.23;100.0
64025;BME280;50266;57.446;26.936;2023-04-27T04:54:38;98693.58;;;4.29;100.0
64025;BME280;50266;57.446;26.936;2023-04-27T04:55:38;98689.44;;;4.22;100.0
64025;BME280;50266;57.446;26.936;2023-04-27T04:56:38;98690.16;;;4.19;100.0
64025;BME280;50266;57.446;26.936;2023-04-27T04:57:38;98686.88;;;4.11;100.0
64025;BME280;50266;57.446;26.936;2023-04-27T04:58:38;98690.41;;;4.17;100.0
64025;BME280;50266;57.446;26.936;2023-04-27T04:59:38;98693.43;;;4.27;100.0
64025;BME280;50266;57.446;26.936;2023-04-27T05:00:38;98693.55;;;4.29;100.0
64025;BME280;50266;57.446;26.936;2023-04-27T05:01:38;98691.62;;;4.34;100.0
64025;BME280;50266;57.446;26.936;2023-04-27T05:02:38;98693.81;;;4.22;100.0
64025;BME280;50266;57.446;26.936;2023-04-27T05:03:38;98690.64;;;4.34;100.0
64025;BME280;50266;57.446;26.936;2023-04-27T05:04:38;98694.89;;;4.37;100.0
64025;BME280;50266;57.446;26.936;2023-04-27T05:05:38;98693.95;;;4.21;100.0
64025;BME280;50266;57.446;26.936;2023-04-27T05:06:40;98693.01;;;4.17;100.0
64025;BME280;50266;57.446;26.936;2023-04-27T05:07:38;98697.53;;;4.18;100.0
64025;BME280;50266;57.446;26.936;2023-04-27T05:08:38;98693.0;;;4.24;100.0
64025;BME280;50266;57.446;26.936;2023-04-27T05:09:38;98696.23;;;4.12;100.0
64025;BME280;50266;57.446;26.936;2023-04-27T05:10:38;98696.19;;;4.18;100.0
64025;BME280;50266;57.446;26.936;2023-04-27T05:11:38;98699.32;;;4.17;100.0
64025;BME280;50266;57.446;26.936;2023-04-27T05:12:38;98702.33;;;4.25;100.0
64025;BME280;50266;57.446;26.936;2023-04-27T05:13:38;98697.2;;;4.12;100.0
64025;BME280;50266;57.446;26.936;2023-04-27T05:14:38;98701.08;;;4.19;100.0
64025;BME280;50266;57.446;26.936;2023-04-27T05:15:38;98700.75;;;4.19;100.0
64025;BME280;50266;57.446;26.936;2023-04-27T05:16:38;98702.59;;;4.19;100.0
64025;BME280;50266;57.446;26.936;2023-04-27T05:17:38;98703.66;;;4.24;100.0
64025;BME280;50266;57.446;26.936;2023-04-27T05:18:41;98700.48;;;4.32;100.0